createdAt,value
2023-04-08T00:01:42.859Z,9.35
2023-04-08T00:04:09.931Z,8.70
2023-04-08T00:06:37.356Z,9.82
2023-04-08T00:09:04.205Z,8.75
2023-04-08T00:11:31.017Z,8.73
2023-04-08T00:13:57.665Z,10.77
2023-04-08T00:16:24.399Z,9.30
2023-04-08T00:18:51.400Z,11.20
2023-04-08T00:21:20.848Z,10.43
2023-04-08T00:23:47.705Z,9.75
2023-04-08T00:26:14.406Z,10.63
2023-04-08T00:28:41.259Z,10.95
2023-04-08T00:31:08.015Z,10.88
2023-04-08T00:33:34.739Z,11.43
2023-04-08T00:36:01.422Z,10.23
2023-04-08T00:38:28.140Z,10.07
2023-04-08T00:40:54.839Z,11.18
2023-04-08T00:43:21.671Z,11.38
2023-04-08T00:45:48.490Z,10.18
2023-04-08T00:48:15.513Z,9.43
2023-04-08T00:50:44.197Z,9.55
2023-04-08T00:53:11.228Z,11.57
2023-04-08T00:55:37.858Z,10.70
2023-04-08T00:58:04.516Z,10.95
2023-04-08T01:00:31.695Z,9.20
2023-04-08T01:03:16.829Z,9.52
2023-04-08T01:05:49.665Z,9.65
2023-04-08T01:08:17.783Z,9.98
2023-04-08T01:10:49.005Z,9.45
2023-04-08T01:13:18.967Z,10.27
2023-04-08T01:15:46.512Z,9.38
2023-04-08T01:18:16.006Z,10.70
2023-04-08T01:20:43.568Z,10.05
2023-04-08T01:23:47.246Z,13.57
2023-04-08T01:26:22.927Z,10.95
2023-04-08T01:28:52.440Z,10.05
2023-04-08T01:31:19.885Z,9.63
2023-04-08T01:33:49.255Z,9.48
2023-04-08T01:36:17.705Z,9.48
2023-04-08T01:38:46.488Z,10.20
2023-04-08T01:41:13.236Z,8.15
2023-04-08T01:43:43.745Z,8.50
2023-04-08T01:46:12.768Z,8.75
2023-04-08T01:48:40.549Z,9.00
2023-04-08T01:51:08.040Z,9.52
2023-04-08T01:53:34.824Z,10.82
2023-04-08T01:56:12.965Z,9.23
2023-04-08T01:58:49.214Z,12.52
2023-04-08T02:01:19.051Z,9.93
2023-04-08T02:03:47.684Z,9.10
2023-04-08T02:06:14.563Z,9.40
2023-04-08T02:08:42.005Z,9.02
2023-04-08T02:11:08.639Z,12.40
2023-04-08T02:13:35.445Z,12.60
2023-04-08T02:16:14.593Z,11.25
2023-04-08T02:18:45.952Z,12.25
2023-04-08T02:21:15.926Z,10.48
2023-04-08T02:23:48.704Z,9.27
2023-04-08T02:26:17.330Z,9.02
2023-04-08T02:28:44.912Z,10.65
2023-04-08T02:31:16.440Z,8.00
2023-04-08T02:33:44.194Z,8.45
2023-04-08T02:36:12.482Z,10.45
2023-04-08T02:38:39.184Z,10.98
2023-04-08T02:41:05.830Z,8.45
2023-04-08T02:43:32.610Z,7.38
2023-04-08T02:46:03.480Z,11.85
2023-04-08T02:48:31.313Z,10.75
2023-04-08T02:50:57.970Z,10.77
2023-04-08T02:53:25.114Z,9.23
2023-04-08T02:55:51.915Z,11.40
2023-04-08T02:58:18.691Z,10.40
2023-04-08T03:00:45.653Z,12.18
2023-04-08T03:03:12.419Z,12.00
2023-04-08T03:05:39.224Z,9.93
2023-04-08T03:08:06.902Z,12.70
2023-04-08T03:10:33.705Z,16.92
2023-04-08T03:13:00.457Z,15.60
2023-04-08T03:15:27.463Z,13.65
2023-04-08T03:17:54.182Z,15.75
2023-04-08T03:20:20.886Z,12.57
2023-04-08T03:22:47.671Z,17.20
2023-04-08T03:25:14.326Z,13.95
2023-04-08T03:27:40.999Z,13.80
2023-04-08T03:30:08.332Z,14.60
2023-04-08T03:32:35.455Z,17.10
2023-04-08T03:35:02.100Z,14.57
2023-04-08T03:37:28.739Z,19.50
2023-04-08T03:39:55.784Z,15.32
2023-04-08T03:42:22.476Z,16.67
2023-04-08T03:44:49.157Z,15.73
2023-04-08T03:47:16.010Z,18.00
2023-04-08T03:49:42.718Z,15.75
2023-04-08T03:52:09.454Z,14.25
2023-04-08T03:54:36.109Z,14.77
2023-04-08T03:57:02.854Z,14.85
2023-04-08T03:59:29.635Z,13.85
2023-04-08T04:01:56.611Z,15.40
2023-04-08T04:04:24.089Z,14.02
2023-04-08T04:06:50.919Z,15.88
2023-04-08T04:09:17.594Z,17.95
2023-04-08T04:11:44.271Z,14.80
2023-04-08T04:14:10.949Z,15.52
2023-04-08T04:16:37.572Z,17.85
2023-04-08T04:19:04.276Z,15.32
2023-04-08T04:21:31.343Z,15.15
2023-04-08T04:23:57.938Z,17.92
2023-04-08T04:26:24.635Z,20.08
2023-04-08T04:28:51.408Z,17.52
2023-04-08T04:31:20.770Z,18.00
2023-04-08T04:33:48.566Z,15.77
2023-04-08T04:36:16.195Z,16.27
2023-04-08T04:38:43.192Z,15.30
2023-04-08T04:41:09.952Z,17.20
2023-04-08T04:43:36.737Z,20.08
2023-04-08T04:46:07.099Z,15.38
2023-04-08T04:48:34.077Z,20.15
2023-04-08T04:51:03.168Z,19.88
2023-04-08T04:53:30.871Z,18.45
2023-04-08T04:55:57.487Z,21.00
2023-04-08T04:58:24.210Z,19.25
2023-04-08T05:00:50.874Z,18.08
2023-04-08T05:03:17.676Z,20.00
2023-04-08T05:05:44.456Z,16.75
2023-04-08T05:08:11.429Z,18.10
2023-04-08T05:10:40.588Z,16.73
2023-04-08T05:13:07.224Z,15.63
2023-04-08T05:15:33.873Z,18.20
2023-04-08T05:18:00.721Z,17.60
2023-04-08T05:20:27.373Z,14.70
2023-04-08T05:22:54.059Z,24.13
2023-04-08T05:25:20.961Z,15.77
2023-04-08T05:27:47.643Z,18.50
2023-04-08T05:30:14.317Z,16.20
2023-04-08T05:32:41.212Z,15.77
2023-04-08T05:35:09.608Z,15.80
2023-04-08T05:37:36.408Z,15.57
2023-04-08T05:40:03.450Z,15.55
2023-04-08T05:42:30.058Z,22.83
2023-04-08T05:44:56.680Z,16.35
2023-04-08T05:47:23.556Z,16.95
2023-04-08T05:49:51.313Z,16.77
2023-04-08T05:52:18.031Z,15.75
2023-04-08T05:54:44.726Z,15.45
2023-04-08T05:57:11.779Z,18.35
2023-04-08T05:59:38.434Z,16.00
2023-04-08T06:02:05.678Z,15.65
2023-04-08T06:04:32.604Z,15.40
2023-04-08T06:07:00.953Z,14.30
2023-04-08T06:09:27.574Z,14.93
2023-04-08T06:11:54.235Z,15.48
2023-04-08T06:14:20.943Z,17.67
2023-04-08T06:16:47.853Z,16.52
2023-04-08T06:19:14.581Z,15.75
2023-04-08T06:21:41.183Z,15.20
2023-04-08T06:24:07.821Z,16.40
2023-04-08T06:26:34.629Z,14.30
2023-04-08T06:29:02.061Z,17.20
2023-04-08T06:31:28.763Z,15.48
2023-04-08T06:33:56.033Z,16.85
2023-04-08T06:36:22.699Z,18.55
2023-04-08T06:38:49.529Z,12.57
2023-04-08T06:41:16.431Z,15.95
2023-04-08T06:43:43.060Z,15.50
2023-04-08T06:46:09.770Z,15.63
2023-04-08T06:48:37.872Z,15.40
2023-04-08T06:51:04.689Z,16.35
2023-04-08T06:53:32.939Z,13.55
2023-04-08T06:56:00.332Z,13.32
2023-04-08T06:58:27.454Z,13.27
2023-04-08T07:00:56.290Z,17.42
2023-04-08T07:03:23.563Z,14.70
2023-04-08T07:05:50.570Z,15.02
2023-04-08T07:08:17.230Z,15.63
2023-04-08T07:10:43.824Z,13.98
2023-04-08T07:13:10.919Z,14.98
2023-04-08T07:15:37.644Z,14.70
2023-04-08T07:18:04.817Z,14.75
2023-04-08T07:20:32.385Z,14.05
2023-04-08T07:22:59.076Z,15.20
2023-04-08T07:25:25.795Z,16.85
2023-04-08T07:27:53.008Z,15.95
2023-04-08T07:30:19.937Z,16.15
2023-04-08T07:32:46.956Z,14.45
2023-04-08T07:35:13.841Z,16.33
2023-04-08T07:37:40.670Z,14.20
2023-04-08T07:40:07.971Z,16.60
2023-04-08T07:42:34.563Z,16.05
2023-04-08T07:45:01.181Z,14.10
2023-04-08T07:47:28.239Z,15.82
2023-04-08T07:49:54.958Z,16.15
2023-04-08T07:52:21.579Z,18.00
2023-04-08T07:54:48.377Z,15.38
2023-04-08T07:57:15.286Z,17.48
2023-04-08T07:59:42.157Z,16.27
2023-04-08T08:02:08.953Z,21.85
2023-04-08T08:04:35.698Z,18.90
2023-04-08T08:07:02.462Z,16.13
2023-04-08T08:09:30.997Z,15.80
2023-04-08T08:11:58.709Z,15.23
2023-04-08T08:14:26.837Z,16.35
2023-04-08T08:16:54.394Z,13.50
2023-04-08T08:19:21.455Z,16.98
2023-04-08T08:21:48.531Z,16.50
2023-04-08T08:24:16.550Z,20.20
2023-04-08T08:26:45.190Z,18.67
2023-04-08T08:29:11.802Z,20.73
2023-04-08T08:31:38.474Z,18.58
2023-04-08T08:34:05.388Z,16.08
2023-04-08T08:36:33.451Z,17.10
2023-04-08T08:39:01.371Z,18.95
2023-04-08T08:41:32.741Z,17.05
2023-04-08T08:44:00.017Z,17.77
2023-04-08T08:46:26.696Z,18.45
2023-04-08T08:48:53.363Z,19.35
2023-04-08T08:51:20.528Z,17.77
2023-04-08T08:53:47.175Z,16.95
2023-04-08T08:56:18.253Z,19.95
2023-04-08T08:58:45.887Z,18.48
2023-04-08T09:01:32.795Z,19.60
2023-04-08T09:04:15.861Z,17.52
2023-04-08T09:06:43.746Z,18.85
2023-04-08T09:09:10.732Z,19.05
2023-04-08T09:11:42.852Z,16.98
2023-04-08T09:14:18.991Z,21.02
2023-04-08T09:16:45.763Z,18.85
2023-04-08T09:19:12.513Z,17.83
2023-04-08T09:21:41.406Z,16.95
2023-04-08T09:24:09.160Z,17.60
2023-04-08T09:26:37.633Z,16.80
2023-04-08T09:29:25.140Z,15.75
2023-04-08T09:32:00.309Z,16.30
2023-04-08T09:34:28.556Z,15.20
2023-04-08T09:36:56.084Z,18.55
2023-04-08T09:39:23.165Z,14.88
2023-04-08T09:41:51.892Z,15.18
2023-04-08T09:44:21.383Z,14.27
2023-04-08T09:46:51.531Z,16.65
2023-04-08T09:49:27.646Z,18.52
2023-04-08T09:52:07.223Z,19.20
2023-04-08T09:54:52.925Z,14.27
2023-04-08T09:57:32.057Z,16.88
2023-04-08T10:00:11.673Z,14.73
2023-04-08T10:03:01.248Z,15.07
2023-04-08T10:05:28.193Z,17.00
2023-04-08T10:07:57.231Z,16.27
2023-04-08T10:10:24.598Z,15.05
2023-04-08T10:12:51.567Z,15.40
2023-04-08T10:15:29.587Z,14.15
2023-04-08T10:18:05.622Z,14.77
2023-04-08T10:20:36.031Z,14.95
2023-04-08T10:23:04.260Z,14.27
2023-04-08T10:25:43.373Z,17.42
2023-04-08T10:28:17.921Z,15.10
2023-04-08T10:30:46.622Z,15.15
2023-04-08T10:33:23.269Z,15.80
2023-04-08T10:35:53.468Z,16.58
2023-04-08T10:38:20.871Z,15.57
2023-04-08T10:40:48.922Z,17.17
2023-04-08T10:43:16.180Z,16.60
2023-04-08T10:45:45.773Z,13.93
2023-04-08T10:48:14.897Z,15.70
2023-04-08T10:50:41.914Z,15.30
2023-04-08T10:53:08.717Z,15.65
2023-04-08T10:55:35.648Z,14.27
2023-04-08T10:58:09.375Z,16.02
2023-04-08T11:00:38.273Z,16.00
2023-04-08T11:03:10.204Z,13.93
2023-04-08T11:05:39.038Z,16.40
2023-04-08T11:08:06.447Z,18.13
2023-04-08T11:10:38.797Z,17.55
2023-04-08T11:13:09.974Z,16.27
2023-04-08T11:15:37.418Z,17.95
2023-04-08T11:18:05.537Z,14.48
2023-04-08T11:20:36.258Z,16.95
2023-04-08T11:23:03.661Z,17.48
2023-04-08T11:25:30.627Z,14.77
2023-04-08T11:27:57.566Z,17.50
2023-04-08T11:30:24.599Z,15.93
2023-04-08T11:32:52.424Z,17.70
2023-04-08T11:35:19.266Z,15.82
2023-04-08T11:37:47.845Z,15.70
2023-04-08T11:40:20.784Z,15.88
2023-04-08T11:42:47.723Z,17.25
2023-04-08T11:45:16.564Z,17.27
2023-04-08T11:47:44.764Z,15.80
2023-04-08T11:50:11.729Z,11.63
2023-04-08T11:52:49.710Z,15.93
2023-04-08T11:55:26.776Z,18.13
2023-04-08T11:57:54.866Z,15.02
2023-04-08T12:00:22.885Z,18.15
2023-04-08T12:02:50.095Z,18.90
2023-04-08T12:05:17.558Z,17.42
2023-04-08T12:07:44.439Z,19.17
2023-04-08T12:10:12.361Z,18.45
2023-04-08T12:12:39.316Z,19.77
2023-04-08T12:15:07.517Z,16.70
2023-04-08T12:17:34.837Z,19.95
2023-04-08T12:20:01.660Z,20.88
2023-04-08T12:22:28.401Z,19.33
2023-04-08T12:24:55.036Z,17.55
2023-04-08T12:27:21.650Z,17.65
2023-04-08T12:29:49.914Z,15.85
2023-04-08T12:32:16.641Z,17.08
2023-04-08T12:34:43.212Z,18.88
2023-04-08T12:37:10.705Z,16.90
2023-04-08T12:39:37.299Z,15.85
2023-04-08T12:42:04.624Z,15.57
2023-04-08T12:44:31.293Z,16.42
2023-04-08T12:47:00.480Z,14.05
2023-04-08T12:49:28.063Z,13.90
2023-04-08T12:51:55.132Z,14.63
2023-04-08T12:54:21.924Z,14.88
2023-04-08T12:56:48.955Z,13.65
2023-04-08T12:59:16.096Z,13.07
2023-04-08T13:01:42.966Z,14.30
2023-04-08T13:04:09.728Z,14.15
2023-04-08T13:06:36.359Z,15.85
2023-04-08T13:09:03.020Z,15.00
2023-04-08T13:11:29.649Z,15.27
2023-04-08T13:13:57.317Z,14.50
2023-04-08T13:16:24.107Z,12.85
2023-04-08T13:18:51.044Z,10.80
2023-04-08T13:21:18.038Z,12.77
2023-04-08T13:23:44.873Z,11.98
2023-04-08T13:26:11.490Z,12.20
2023-04-08T13:28:53.778Z,12.88
2023-04-08T13:31:23.676Z,12.50
2023-04-08T13:33:50.316Z,12.90
2023-04-08T13:36:17.005Z,13.23
2023-04-08T13:38:43.840Z,11.70
2023-04-08T13:41:10.483Z,12.70
2023-04-08T13:43:37.422Z,13.80
2023-04-08T13:46:04.058Z,14.57
2023-04-08T13:48:30.920Z,12.50
2023-04-08T13:50:57.520Z,11.25
2023-04-08T13:53:24.236Z,16.35
2023-04-08T13:55:55.138Z,15.95
2023-04-08T13:58:24.336Z,19.15
2023-04-08T14:00:51.918Z,14.48
2023-04-08T14:03:19.313Z,14.23
2023-04-08T14:05:46.103Z,13.50
2023-04-08T14:08:13.853Z,15.82
2023-04-08T14:10:42.331Z,19.92
2023-04-08T14:13:09.413Z,17.13
2023-04-08T14:15:36.210Z,13.90
2023-04-08T14:18:03.291Z,12.77
2023-04-08T14:20:30.443Z,13.07
2023-04-08T14:22:57.121Z,13.10
2023-04-08T14:25:24.494Z,12.68
2023-04-08T14:27:58.356Z,12.15
2023-04-08T14:30:25.848Z,13.43
2023-04-08T14:32:52.881Z,12.98
2023-04-08T14:35:19.527Z,12.48
2023-04-08T14:37:47.044Z,13.32
2023-04-08T14:40:13.745Z,11.95
2023-04-08T14:42:40.357Z,10.45
2023-04-08T14:45:07.513Z,15.02
2023-04-08T14:47:34.257Z,10.50
2023-04-08T14:50:00.981Z,11.65
2023-04-08T14:52:27.768Z,13.02
2023-04-08T14:54:54.361Z,11.98
2023-04-08T14:57:20.979Z,11.65
2023-04-08T14:59:47.658Z,9.88
2023-04-08T15:02:14.560Z,9.25
2023-04-08T15:04:41.327Z,10.40
2023-04-08T15:07:08.256Z,9.45
2023-04-08T15:09:34.856Z,10.10
2023-04-08T15:12:01.886Z,10.45
2023-04-08T15:14:28.542Z,9.35
2023-04-08T15:16:55.488Z,9.98
2023-04-08T15:19:22.158Z,10.13
2023-04-08T15:21:48.844Z,8.93
2023-04-08T15:24:15.480Z,9.30
2023-04-08T15:26:42.528Z,10.55
2023-04-08T15:29:09.239Z,10.50
2023-04-08T15:31:36.092Z,10.23
2023-04-08T15:34:03.635Z,12.30
2023-04-08T15:36:30.984Z,11.45
2023-04-08T15:38:57.621Z,10.57
2023-04-08T15:41:24.390Z,11.77
2023-04-08T15:43:52.410Z,10.80
2023-04-08T15:46:20.014Z,10.90
2023-04-08T15:48:47.545Z,9.88
2023-04-08T15:51:14.257Z,10.80
2023-04-08T15:53:41.694Z,9.32
2023-04-08T15:56:16.328Z,9.77
2023-04-08T15:58:43.900Z,10.73
2023-04-08T16:01:10.787Z,12.10
2023-04-08T16:03:37.584Z,9.23
2023-04-08T16:06:06.041Z,10.82
2023-04-08T16:08:34.039Z,8.45
2023-04-08T16:11:02.612Z,8.30
2023-04-08T16:13:30.169Z,8.48
2023-04-08T16:15:58.363Z,8.18
2023-04-08T16:18:26.132Z,7.45
2023-04-08T16:20:53.286Z,8.93
2023-04-08T16:23:20.174Z,7.18
2023-04-08T16:25:47.541Z,8.13
2023-04-08T16:28:14.553Z,12.88
2023-04-08T16:30:43.560Z,10.27
2023-04-08T16:33:12.947Z,10.93
2023-04-08T16:35:40.035Z,9.20
2023-04-08T16:38:06.730Z,21.30
2023-04-08T16:40:33.992Z,13.88
2023-04-08T16:43:01.730Z,41.75
2023-04-08T16:45:29.875Z,10.93
2023-04-08T16:47:57.046Z,12.27
2023-04-08T16:50:23.934Z,11.73
2023-04-08T16:52:50.599Z,12.35
2023-04-08T16:55:17.813Z,10.70
2023-04-08T16:57:44.454Z,10.52
2023-04-08T17:00:11.485Z,12.35
2023-04-08T17:02:38.290Z,10.52
2023-04-08T17:05:05.509Z,36.50
2023-04-08T17:07:32.828Z,14.52
2023-04-08T17:09:59.799Z,14.25
2023-04-08T17:12:26.715Z,23.10
2023-04-08T17:14:53.374Z,29.73
2023-04-08T17:17:19.980Z,19.02
2023-04-08T17:19:47.232Z,16.63
2023-04-08T17:22:14.000Z,23.65
2023-04-08T17:24:40.707Z,26.58
2023-04-08T17:27:07.359Z,32.13
2023-04-08T17:29:33.951Z,33.15
2023-04-08T17:32:00.723Z,14.02
2023-04-08T17:34:27.496Z,11.75
2023-04-08T17:36:54.083Z,12.25
2023-04-08T17:39:20.731Z,12.05
2023-04-08T17:41:47.371Z,13.95
2023-04-08T17:44:14.088Z,11.45
2023-04-08T17:46:41.593Z,13.48
2023-04-08T17:49:11.186Z,14.20
2023-04-08T17:51:37.849Z,11.85
2023-04-08T17:54:05.667Z,12.55
2023-04-08T17:56:33.456Z,11.25
2023-04-08T17:59:00.107Z,13.77
2023-04-08T18:01:27.540Z,12.95
2023-04-08T18:03:54.647Z,11.75
2023-04-08T18:06:21.535Z,14.05
2023-04-08T18:08:48.409Z,14.55
2023-04-08T18:11:15.119Z,13.27
2023-04-08T18:13:41.736Z,16.40
2023-04-08T18:16:17.343Z,25.08
2023-04-08T18:18:44.480Z,21.42
2023-04-08T18:21:11.069Z,21.52
2023-04-08T18:23:37.791Z,15.38
2023-04-08T18:26:04.457Z,11.60
2023-04-08T18:28:31.671Z,12.00
2023-04-08T18:31:00.372Z,12.75
2023-04-08T18:33:27.316Z,13.18
2023-04-08T18:35:54.643Z,14.05
2023-04-08T18:38:21.942Z,13.70
2023-04-08T18:40:48.726Z,11.57
2023-04-08T18:43:15.676Z,11.43
2023-04-08T18:45:42.520Z,11.88
2023-04-08T18:48:09.276Z,12.05
2023-04-08T18:50:35.966Z,14.85
2023-04-08T18:53:02.612Z,11.85
2023-04-08T18:55:29.255Z,12.13
2023-04-08T18:57:56.265Z,12.55
2023-04-08T19:00:22.987Z,12.07
2023-04-08T19:02:50.242Z,10.68
2023-04-08T19:05:17.478Z,11.27
2023-04-08T19:07:44.079Z,10.27
2023-04-08T19:10:10.807Z,10.15
2023-04-08T19:12:37.510Z,10.85
2023-04-08T19:15:04.678Z,10.63
2023-04-08T19:17:31.622Z,10.40
2023-04-08T19:19:58.828Z,10.20
2023-04-08T19:22:25.426Z,10.98
2023-04-08T19:24:53.790Z,10.30
2023-04-08T19:27:21.669Z,10.15
2023-04-08T19:29:48.290Z,7.95
2023-04-08T19:32:15.435Z,9.25
2023-04-08T19:34:42.509Z,8.50
2023-04-08T19:37:09.361Z,9.27
2023-04-08T19:39:36.049Z,8.77
2023-04-08T19:42:02.673Z,8.30
2023-04-08T19:44:29.902Z,7.85
2023-04-08T19:46:57.811Z,7.80
2023-04-08T19:49:25.091Z,7.90
2023-04-08T19:51:52.086Z,9.35
2023-04-08T19:54:18.856Z,8.85
2023-04-08T19:56:45.675Z,8.20
2023-04-08T19:59:12.405Z,7.80
2023-04-08T20:01:40.043Z,10.38
2023-04-08T20:04:07.147Z,8.10
2023-04-08T20:06:34.840Z,8.57
2023-04-08T20:09:05.643Z,8.15
2023-04-08T20:11:33.528Z,7.85
2023-04-08T20:14:00.374Z,9.18
2023-04-08T20:16:27.254Z,8.48
2023-04-08T20:18:53.952Z,7.85
2023-04-08T20:21:20.558Z,7.95
2023-04-08T20:23:47.478Z,8.15
2023-04-08T20:26:14.666Z,9.68
2023-04-08T20:28:43.689Z,9.68
2023-04-08T20:31:10.500Z,7.50
2023-04-08T20:33:43.555Z,7.95
2023-04-08T20:36:14.523Z,8.15
2023-04-08T20:38:42.719Z,8.18
2023-04-08T20:41:09.630Z,7.93
2023-04-08T20:43:36.368Z,7.68
2023-04-08T20:46:03.095Z,7.60
2023-04-08T20:48:29.727Z,8.40
2023-04-08T20:50:57.531Z,8.82
2023-04-08T20:53:24.671Z,9.80
2023-04-08T20:55:51.875Z,8.52
2023-04-08T20:58:18.530Z,8.73
2023-04-08T21:00:47.496Z,7.20
2023-04-08T21:03:14.645Z,10.27
2023-04-08T21:05:41.948Z,10.02
2023-04-08T21:08:09.389Z,8.90
2023-04-08T21:10:36.164Z,8.73
2023-04-08T21:13:02.919Z,7.70
2023-04-08T21:15:29.774Z,8.82
2023-04-08T21:17:56.443Z,8.63
2023-04-08T21:20:23.318Z,8.68
2023-04-08T21:22:50.065Z,7.95
2023-04-08T21:25:18.043Z,9.73
2023-04-08T21:27:44.679Z,9.48
2023-04-08T21:30:11.685Z,9.77
2023-04-08T21:32:38.904Z,9.05
2023-04-08T21:35:05.753Z,9.98
2023-04-08T21:37:32.401Z,8.38
2023-04-08T21:39:59.057Z,9.50
2023-04-08T21:42:26.392Z,11.30
2023-04-08T21:44:53.572Z,8.90
2023-04-08T21:47:20.456Z,8.65
2023-04-08T21:49:48.517Z,7.95
2023-04-08T21:52:15.597Z,9.20
2023-04-08T21:54:42.166Z,7.78
2023-04-08T21:57:08.839Z,9.45
2023-04-08T21:59:35.673Z,9.05
2023-04-08T22:02:03.281Z,9.00
2023-04-08T22:04:30.080Z,10.40
2023-04-08T22:06:56.791Z,9.52
2023-04-08T22:09:23.439Z,9.40
2023-04-08T22:11:50.044Z,8.50
2023-04-08T22:14:17.555Z,9.57
2023-04-08T22:16:44.840Z,9.38
2023-04-08T22:19:11.812Z,10.35
2023-04-08T22:21:38.446Z,10.43
2023-04-08T22:24:05.343Z,9.25
2023-04-08T22:26:32.035Z,9.57
2023-04-08T22:28:58.642Z,9.25
2023-04-08T22:31:25.623Z,9.40
2023-04-08T22:33:52.495Z,10.00
2023-04-08T22:36:19.198Z,9.25
2023-04-08T22:38:46.471Z,9.05
2023-04-08T22:41:20.912Z,10.13
2023-04-08T22:43:48.318Z,11.98
2023-04-08T22:46:15.532Z,11.45
2023-04-08T22:48:42.164Z,11.68
2023-04-08T22:51:10.178Z,12.18
2023-04-08T22:53:37.499Z,13.23
2023-04-08T22:56:04.597Z,11.70
2023-04-08T22:58:31.570Z,11.25
2023-04-08T23:00:58.516Z,12.32
2023-04-08T23:03:25.423Z,15.68
2023-04-08T23:05:52.058Z,13.60
2023-04-08T23:08:18.700Z,12.68
2023-04-08T23:10:45.408Z,13.15
2023-04-08T23:13:14.070Z,14.80
2023-04-08T23:15:40.903Z,14.13
2023-04-08T23:18:07.623Z,13.32
2023-04-08T23:20:35.581Z,10.60
2023-04-08T23:23:03.544Z,12.63
2023-04-08T23:25:30.418Z,13.20
2023-04-08T23:27:57.078Z,12.90
2023-04-08T23:30:23.686Z,11.70
2023-04-08T23:32:50.395Z,11.93
2023-04-08T23:35:17.386Z,13.25
2023-04-08T23:37:43.993Z,12.25
2023-04-08T23:40:10.969Z,13.48
2023-04-08T23:42:37.683Z,13.05
2023-04-08T23:45:05.674Z,13.13
2023-04-08T23:47:32.333Z,14.05
2023-04-08T23:49:58.990Z,11.70
2023-04-08T23:52:25.972Z,13.52
2023-04-08T23:54:52.814Z,15.48
2023-04-08T23:57:22.478Z,14.25
2023-04-08T23:59:49.211Z,14.65
